Terminal Aerodrome Forecast
Issued by NWS Charleston, WV

Current Version | Previous Version | Graphics & Text | Print | Product List | Glossary On
Versions: 1 2 3 4 5 6 7 8 9 10 11 12 13 14 15 16 17 18 19 20 21 22 23 24
254
FTUS41 KRLX 182058 AAA
TAFCRW
TAF AMD
KCRW 182058Z 1821/1918 10008KT P6SM BKN035 BKN050
      TEMPO 1822/1824 VRB04KT -SHRA SCT022
     FM190000 13008KT P6SM OVC060
     FM191000 15004KT P6SM BKN070
     FM191700 20007KT P6SM SHRA VCTS BKN060CB=

USA.gov is the U.S. government's official web portal to all federal, state and local government web resources and services.